Terminal Aerodrome Forecast
Issued by NWS

Home | Current Version | Previous Version | Text Only | Print | Product List | Glossary On
Versions: 1 2 3 4 5 6 7 8 9 10 11 12
843
FTUS44 KTSA 251720
TAFFYV
TAF
KFYV 251720Z 2518/2618 27007KT P6SM VCSH BKN040
     FM252000 33010KT P6SM VCSH SCT025 BKN040
      TEMPO 2520/2524 6SM -TSRA BKN022CB
     FM260100 36007KT P6SM OVC025
     FM260600 01005KT P6SM BKN050=

USA.gov is the U.S. government's official web portal to all federal, state and local government web resources and services.